createdAt,value
2023-04-22T00:02:30.988Z,18.93
2023-04-22T00:07:33.534Z,20.57
2023-04-22T00:12:35.552Z,22.50
2023-04-22T00:17:37.741Z,21.57
2023-04-22T00:22:39.695Z,21.90
2023-04-22T00:27:41.871Z,19.77
2023-04-22T00:32:43.939Z,20.07
2023-04-22T00:37:46.317Z,19.90
2023-04-22T00:42:50.829Z,20.43
2023-04-22T00:47:53.173Z,22.57
2023-04-22T00:52:55.089Z,21.00
2023-04-22T00:58:00.805Z,20.63
2023-04-22T01:03:03.433Z,19.97
2023-04-22T01:08:05.843Z,20.83
2023-04-22T01:13:08.571Z,20.63
2023-04-22T01:18:11.000Z,23.20
2023-04-22T01:23:22.719Z,23.17
2023-04-22T01:28:25.965Z,22.47
2023-04-22T01:33:29.351Z,22.40
2023-04-22T01:38:33.851Z,21.27
2023-04-22T01:43:36.544Z,20.40
2023-04-22T01:48:38.891Z,20.87
2023-04-22T01:53:41.148Z,21.10
2023-04-22T01:58:43.271Z,24.07
2023-04-22T02:03:45.219Z,25.27
2023-04-22T02:08:48.965Z,25.37
2023-04-22T02:13:51.088Z,24.00
2023-04-22T02:18:53.218Z,24.53
2023-04-22T02:23:55.098Z,23.57
2023-04-22T02:28:57.152Z,24.37
2023-04-22T02:34:00.469Z,23.30
2023-04-22T02:39:03.716Z,22.20
2023-04-22T02:44:06.753Z,24.73
2023-04-22T02:49:08.973Z,20.87
2023-04-22T02:54:11.113Z,20.27
2023-04-22T02:59:13.124Z,20.93
2023-04-22T03:04:15.737Z,21.23
2023-04-22T03:09:17.994Z,20.43
2023-04-22T03:14:20.709Z,20.67
2023-04-22T03:19:22.995Z,23.03
2023-04-22T03:24:25.173Z,23.93
2023-04-22T03:29:28.529Z,22.93
2023-04-22T03:34:31.406Z,27.17
2023-04-22T03:39:33.907Z,29.87
2023-04-22T03:44:36.291Z,29.17
2023-04-22T03:49:38.816Z,24.37
2023-04-22T03:54:41.549Z,22.70
2023-04-22T03:59:43.971Z,24.33
2023-04-22T04:04:47.757Z,28.43
2023-04-22T04:09:50.966Z,28.40
2023-04-22T04:14:53.443Z,30.53
2023-04-22T04:19:56.740Z,29.07
2023-04-22T04:24:58.794Z,30.40
2023-04-22T04:30:07.113Z,30.93
2023-04-22T04:35:16.600Z,31.20
2023-04-22T04:40:23.498Z,30.50
2023-04-22T04:45:53.026Z,31.50
2023-04-22T04:51:02.298Z,30.27
2023-04-22T04:56:07.918Z,28.43
2023-04-22T05:01:10.865Z,28.77
2023-04-22T05:06:13.460Z,28.23
2023-04-22T05:11:20.984Z,28.47
2023-04-22T05:16:26.558Z,32.93
2023-04-22T05:21:29.060Z,34.70
2023-04-22T05:26:32.044Z,31.57
2023-04-22T05:31:35.159Z,33.27
2023-04-22T05:36:37.526Z,33.03
2023-04-22T05:41:39.621Z,32.50
2023-04-22T05:46:45.404Z,31.13
2023-04-22T05:51:48.180Z,30.23
2023-04-22T05:56:53.518Z,33.27
2023-04-22T06:01:55.861Z,31.67
2023-04-22T06:06:58.008Z,32.50
2023-04-22T06:12:00.533Z,33.33
2023-04-22T06:17:03.848Z,34.50
2023-04-22T06:22:05.983Z,32.60
2023-04-22T06:27:08.051Z,32.13
2023-04-22T06:32:10.132Z,30.80
2023-04-22T06:37:12.063Z,33.47
2023-04-22T06:42:14.437Z,30.77
2023-04-22T06:47:32.374Z,28.73
2023-04-22T06:52:40.929Z,28.60
2023-04-22T06:57:43.067Z,28.40
2023-04-22T07:02:45.237Z,25.67
2023-04-22T07:07:47.524Z,26.80
2023-04-22T07:12:54.315Z,24.97
2023-04-22T07:17:56.268Z,27.63
2023-04-22T07:22:58.380Z,26.87
2023-04-22T07:28:00.492Z,24.10
2023-04-22T07:33:02.870Z,23.07
2023-04-22T07:38:04.753Z,24.07
2023-04-22T07:43:06.985Z,23.20
2023-04-22T07:48:09.010Z,21.80
2023-04-22T07:53:11.129Z,18.80
2023-04-22T07:58:12.995Z,19.57
2023-04-22T08:03:15.114Z,20.00
2023-04-22T08:08:18.536Z,18.90
2023-04-22T08:13:20.638Z,18.23
2023-04-22T08:18:22.741Z,17.63
2023-04-22T08:23:26.055Z,15.13
2023-04-22T08:28:28.093Z,15.02
2023-04-22T08:33:30.417Z,16.35
2023-04-22T08:38:32.463Z,14.15
2023-04-22T08:43:34.638Z,12.40
2023-04-22T08:48:37.123Z,9.80
2023-04-22T08:53:39.234Z,10.15
2023-04-22T08:58:42.269Z,8.70
2023-04-22T09:03:44.589Z,9.05
2023-04-22T09:08:47.774Z,8.05
2023-04-22T09:13:50.021Z,7.88
2023-04-22T09:18:52.225Z,8.90
2023-04-22T09:23:55.596Z,8.98
2023-04-22T09:28:59.292Z,8.27
2023-04-22T09:34:02.153Z,8.52
2023-04-22T09:39:07.619Z,9.05
2023-04-22T09:44:18.153Z,9.23
2023-04-22T09:49:21.055Z,9.82
2023-04-22T09:54:23.807Z,10.47
2023-04-22T09:59:30.514Z,10.27
2023-04-22T10:04:32.825Z,10.47
2023-04-22T10:09:34.958Z,10.67
2023-04-22T10:14:36.941Z,11.27
2023-04-22T10:19:40.254Z,10.77
2023-04-22T10:24:43.477Z,12.77
2023-04-22T10:29:45.772Z,12.37
2023-04-22T10:34:49.496Z,12.50
2023-04-22T10:40:16.709Z,13.10
2023-04-22T10:45:24.295Z,13.80
2023-04-22T10:50:28.085Z,14.60
2023-04-22T10:55:53.242Z,15.93
2023-04-22T11:01:03.075Z,14.27
2023-04-22T11:06:19.277Z,14.13
2023-04-22T11:11:21.255Z,14.50
2023-04-22T11:16:23.427Z,14.37
2023-04-22T11:21:26.169Z,15.43
2023-04-22T11:26:35.903Z,15.07
2023-04-22T11:31:38.126Z,13.93
2023-04-22T11:36:45.486Z,12.87
2023-04-22T11:41:47.790Z,13.67
2023-04-22T11:46:49.918Z,14.70
2023-04-22T11:51:56.499Z,15.37
2023-04-22T11:57:02.445Z,16.17
2023-04-22T12:02:08.348Z,16.80
2023-04-22T12:07:10.553Z,17.27
2023-04-22T12:12:12.908Z,19.43
2023-04-22T12:17:16.441Z,19.13
2023-04-22T12:22:30.043Z,24.23
2023-04-22T12:27:32.037Z,25.47
2023-04-22T12:32:34.480Z,25.37
2023-04-22T12:37:36.612Z,29.30
2023-04-22T12:42:38.707Z,27.90
2023-04-22T12:47:55.288Z,29.73
2023-04-22T12:52:56.812Z,30.30
2023-04-22T12:57:58.480Z,30.93
2023-04-22T13:03:00.159Z,29.37
2023-04-22T13:08:07.361Z,28.90
2023-04-22T13:13:18.527Z,33.27
2023-04-22T13:18:22.298Z,31.60
2023-04-22T13:23:24.977Z,34.03
2023-04-22T13:28:27.075Z,31.30
2023-04-22T13:33:28.480Z,30.87
2023-04-22T13:38:29.789Z,33.27
2023-04-22T13:43:31.316Z,29.53
2023-04-22T13:48:32.740Z,29.97
2023-04-22T13:53:34.686Z,28.67
2023-04-22T13:58:36.056Z,30.27
2023-04-22T14:03:37.765Z,28.90
2023-04-22T14:08:40.195Z,29.93
2023-04-22T14:13:41.893Z,31.20
2023-04-22T14:18:44.963Z,29.67
2023-04-22T14:23:46.318Z,30.97
2023-04-22T14:28:47.672Z,31.73
2023-04-22T14:33:48.925Z,29.07
2023-04-22T14:38:50.200Z,28.50
2023-04-22T14:43:51.479Z,32.43
2023-04-22T14:48:52.627Z,24.30
2023-04-22T14:53:54.062Z,22.57
2023-04-22T14:58:55.828Z,24.30
2023-04-22T15:03:57.293Z,21.17
2023-04-22T15:08:58.710Z,21.70
2023-04-22T15:14:00.111Z,22.37
2023-04-22T15:19:01.376Z,23.23
2023-04-22T15:24:02.550Z,20.20
2023-04-22T15:29:04.020Z,18.63
2023-04-22T15:34:05.414Z,21.23
2023-04-22T15:39:09.937Z,22.03
2023-04-22T15:44:12.855Z,20.47
2023-04-22T15:49:14.216Z,23.37
2023-04-22T15:54:15.393Z,22.97
2023-04-22T15:59:16.958Z,24.17
2023-04-22T16:04:18.718Z,25.80
2023-04-22T16:09:20.508Z,18.70
2023-04-22T16:14:22.040Z,20.87
2023-04-22T16:19:23.394Z,17.67
2023-04-22T16:24:24.680Z,17.10
2023-04-22T16:29:26.020Z,17.53
2023-04-22T16:34:27.667Z,18.20
2023-04-22T16:39:29.455Z,19.03
2023-04-22T16:44:30.773Z,17.23
2023-04-22T16:49:32.142Z,15.83
2023-04-22T16:54:33.568Z,15.60
2023-04-22T16:59:35.036Z,16.87
2023-04-22T17:04:36.688Z,14.83
2023-04-22T17:09:38.179Z,15.20
2023-04-22T17:14:39.593Z,14.93
2023-04-22T17:19:43.117Z,15.17
2023-04-22T17:24:44.991Z,13.93
2023-04-22T17:29:46.365Z,15.13
2023-04-22T17:34:47.793Z,15.43
2023-04-22T17:39:49.018Z,16.43
2023-04-22T17:44:50.325Z,16.27
2023-04-22T17:49:51.884Z,15.30
2023-04-22T17:54:53.082Z,15.33
2023-04-22T17:59:54.350Z,15.93
2023-04-22T18:04:55.834Z,16.83
2023-04-22T18:09:57.164Z,16.07
2023-04-22T18:14:58.373Z,16.80
2023-04-22T18:20:10.226Z,17.33
2023-04-22T18:25:18.712Z,17.07
2023-04-22T18:30:21.508Z,16.90
2023-04-22T18:35:22.774Z,17.97
2023-04-22T18:40:24.232Z,18.27
2023-04-22T18:45:25.446Z,17.43
2023-04-22T18:50:26.846Z,18.43
2023-04-22T18:55:28.231Z,18.17
2023-04-22T19:00:29.799Z,18.60
2023-04-22T19:05:31.486Z,19.40
2023-04-22T19:10:32.989Z,19.47
2023-04-22T19:15:34.198Z,20.00
2023-04-22T19:20:36.066Z,19.37
2023-04-22T19:25:37.962Z,20.37
2023-04-22T19:30:39.551Z,21.80
2023-04-22T19:35:40.984Z,22.87
2023-04-22T19:40:42.325Z,24.33
2023-04-22T19:45:43.737Z,25.13
2023-04-22T19:50:45.362Z,25.37
2023-04-22T19:55:47.218Z,27.73
2023-04-22T20:00:48.953Z,27.50
2023-04-22T20:05:51.262Z,27.57
2023-04-22T20:10:54.193Z,28.67
2023-04-22T20:15:55.561Z,30.20
2023-04-22T20:20:57.865Z,28.80
2023-04-22T20:26:00.163Z,29.53
2023-04-22T20:31:01.742Z,28.33
2023-04-22T20:36:04.871Z,29.07
2023-04-22T20:41:07.852Z,28.83
2023-04-22T20:46:09.235Z,28.40
2023-04-22T20:51:11.686Z,30.07
2023-04-22T20:56:13.347Z,27.93
2023-04-22T21:01:18.741Z,28.33
2023-04-22T21:06:20.570Z,29.33
2023-04-22T21:11:22.219Z,30.57
2023-04-22T21:16:28.779Z,29.07
2023-04-22T21:21:33.297Z,29.13
2023-04-22T21:26:36.817Z,29.27
2023-04-22T21:31:38.197Z,25.70
2023-04-22T21:36:39.731Z,25.27
2023-04-22T21:41:41.150Z,26.73
2023-04-22T21:46:44.586Z,24.27
2023-04-22T21:51:46.210Z,25.83
2023-04-22T21:56:47.449Z,25.73
2023-04-22T22:01:48.947Z,25.30
2023-04-22T22:06:50.498Z,26.17
2023-04-22T22:11:51.915Z,25.30
2023-04-22T22:16:54.161Z,24.27
2023-04-22T22:21:55.908Z,23.43
2023-04-22T22:26:57.307Z,24.80
2023-04-22T22:31:58.650Z,23.03
2023-04-22T22:37:00.333Z,25.50
2023-04-22T22:42:01.568Z,26.03
2023-04-22T22:47:02.883Z,24.80
2023-04-22T22:52:04.419Z,25.30
2023-04-22T22:57:06.322Z,25.57
2023-04-22T23:02:07.762Z,26.47
2023-04-22T23:07:09.730Z,27.80
2023-04-22T23:12:11.049Z,25.73
2023-04-22T23:17:12.558Z,25.43
2023-04-22T23:22:14.200Z,26.57
2023-04-22T23:27:16.735Z,28.47
2023-04-22T23:32:19.235Z,26.03
2023-04-22T23:37:22.544Z,25.33
2023-04-22T23:42:23.697Z,25.43
2023-04-22T23:47:25.285Z,25.13
2023-04-22T23:52:26.647Z,25.80
2023-04-22T23:57:28.261Z,24.40
